createdAt,value
2017-04-17T00:00:30.939Z,4.90
2017-04-17T00:01:29.859Z,5.00
2017-04-17T00:02:28.816Z,4.90
2017-04-17T00:03:28.685Z,4.90
2017-04-17T00:04:27.591Z,4.90
2017-04-17T00:05:26.487Z,4.90
2017-04-17T00:06:26.147Z,4.80
2017-04-17T00:07:25.067Z,4.90
2017-04-17T00:08:23.994Z,4.90
2017-04-17T00:09:22.916Z,4.90
2017-04-17T00:10:22.572Z,4.90
2017-04-17T00:11:21.472Z,4.90
2017-04-17T00:12:20.399Z,4.90
2017-04-17T00:13:19.317Z,4.90
2017-04-17T00:14:18.220Z,4.90
2017-04-17T00:15:17.923Z,4.90
2017-04-17T00:16:16.826Z,5.00
2017-04-17T00:17:16.512Z,4.90
2017-04-17T00:18:15.420Z,5.00
2017-04-17T00:19:14.403Z,5.00
2017-04-17T00:20:13.295Z,5.00
2017-04-17T00:21:12.322Z,5.00
2017-04-17T00:22:11.295Z,5.00
2017-04-17T00:23:10.244Z,4.90
2017-04-17T00:24:09.125Z,5.00
2017-04-17T00:25:08.025Z,5.00
2017-04-17T00:26:06.919Z,5.00
2017-04-17T00:27:05.839Z,4.90
2017-04-17T00:28:04.740Z,5.00
2017-04-17T00:29:03.762Z,4.90
2017-04-17T00:30:02.651Z,4.90
2017-04-17T00:31:01.552Z,4.90
2017-04-17T00:32:00.463Z,4.80
2017-04-17T00:32:59.368Z,4.80
2017-04-17T00:33:58.281Z,4.80
2017-04-17T00:34:57.180Z,4.90
2017-04-17T00:35:56.093Z,4.90
2017-04-17T00:36:55.015Z,4.90
2017-04-17T00:37:53.971Z,4.90
2017-04-17T00:38:52.904Z,4.90
2017-04-17T00:39:52.548Z,4.90
2017-04-17T00:40:51.443Z,5.00
2017-04-17T00:41:50.340Z,5.00
2017-04-17T00:42:49.262Z,5.00
2017-04-17T00:43:48.168Z,5.00
2017-04-17T00:44:47.121Z,5.00
2017-04-17T00:45:46.767Z,4.90
2017-04-17T00:46:45.735Z,5.00
2017-04-17T00:47:44.631Z,4.90
2017-04-17T00:48:43.624Z,4.90
2017-04-17T00:49:42.509Z,4.90
2017-04-17T00:50:41.416Z,4.90
2017-04-17T00:51:41.056Z,4.80
2017-04-17T00:52:39.935Z,4.90
2017-04-17T00:53:38.835Z,4.90
2017-04-17T00:54:37.771Z,4.90
2017-04-17T00:55:36.671Z,4.80
2017-04-17T00:56:35.611Z,4.90
2017-04-17T00:57:35.263Z,4.70
2017-04-17T00:58:34.168Z,4.80
2017-04-17T00:59:33.075Z,4.80
2017-04-17T01:00:31.975Z,4.80
2017-04-17T01:01:30.885Z,4.80
2017-04-17T01:02:29.827Z,4.90
2017-04-17T01:03:28.723Z,4.90
2017-04-17T01:04:27.600Z,4.90
2017-04-17T01:05:26.503Z,4.90
2017-04-17T01:06:25.406Z,4.90
2017-04-17T01:07:24.286Z,4.90
2017-04-17T01:08:23.244Z,4.90
2017-04-17T01:09:22.173Z,5.00
2017-04-17T01:10:21.079Z,4.90
2017-04-17T01:11:20.016Z,4.90
2017-04-17T01:12:19.469Z,4.90
2017-04-17T01:13:18.377Z,4.90
2017-04-17T01:14:17.280Z,4.90
2017-04-17T01:15:16.191Z,4.90
2017-04-17T01:16:15.088Z,4.80
2017-04-17T01:17:13.991Z,4.80
2017-04-17T01:18:12.886Z,4.70
2017-04-17T01:19:11.813Z,4.70
2017-04-17T01:20:10.751Z,4.60
2017-04-17T01:21:09.628Z,4.60
2017-04-17T01:22:08.535Z,4.60
2017-04-17T01:23:07.424Z,4.60
2017-04-17T01:24:06.313Z,4.60
2017-04-17T01:25:05.215Z,4.60
2017-04-17T01:26:04.163Z,4.60
2017-04-17T01:27:03.099Z,4.60
2017-04-17T01:28:01.979Z,4.60
2017-04-17T01:29:00.885Z,4.60
2017-04-17T01:29:59.772Z,4.60
2017-04-17T01:30:58.665Z,4.60
2017-04-17T01:31:58.312Z,4.50
2017-04-17T01:32:57.204Z,4.60
2017-04-17T01:33:56.103Z,4.60
2017-04-17T01:34:55.005Z,4.60
2017-04-17T01:35:54.672Z,4.50
2017-04-17T01:36:53.563Z,4.60
2017-04-17T01:37:52.486Z,4.50
2017-04-17T01:38:51.417Z,4.60
2017-04-17T01:39:50.391Z,4.60
2017-04-17T01:40:49.291Z,4.60
2017-04-17T01:41:48.199Z,4.60
2017-04-17T01:42:47.859Z,4.60
2017-04-17T01:43:46.820Z,4.60
2017-04-17T01:44:45.727Z,4.60
2017-04-17T01:45:44.607Z,4.60
2017-04-17T01:46:43.488Z,4.70
2017-04-17T01:47:42.420Z,4.70
2017-04-17T01:48:41.324Z,4.70
2017-04-17T01:49:40.251Z,4.70
2017-04-17T01:50:39.160Z,4.70
2017-04-17T01:51:38.038Z,4.70
2017-04-17T01:52:36.931Z,4.60
2017-04-17T01:53:35.836Z,4.60
2017-04-17T01:54:34.755Z,4.70
2017-04-17T01:55:34.417Z,4.60
2017-04-17T01:56:33.313Z,4.60
2017-04-17T01:57:32.202Z,4.60
2017-04-17T01:58:31.111Z,4.60
2017-04-17T01:59:30.006Z,4.60
2017-04-17T02:00:28.920Z,4.60
2017-04-17T02:01:27.834Z,4.60
2017-04-17T02:02:26.725Z,4.60
2017-04-17T02:03:26.408Z,4.50
2017-04-17T02:04:25.295Z,4.50
2017-04-17T02:05:24.289Z,4.50
2017-04-17T02:06:24.095Z,4.50
2017-04-17T02:07:23.767Z,4.40
2017-04-17T02:08:22.695Z,4.50
2017-04-17T02:09:21.602Z,4.50
2017-04-17T02:10:20.494Z,4.50
2017-04-17T02:11:19.394Z,4.50
2017-04-17T02:12:19.068Z,4.40
2017-04-17T02:13:18.056Z,4.50
2017-04-17T02:14:16.994Z,4.50
2017-04-17T02:15:15.919Z,4.50
2017-04-17T02:16:15.853Z,4.50
2017-04-17T02:17:15.511Z,4.50
2017-04-17T02:18:14.437Z,4.50
2017-04-17T02:19:14.156Z,4.50
2017-04-17T02:20:13.063Z,4.60
2017-04-17T02:21:11.971Z,4.60
2017-04-17T02:22:10.850Z,4.60
2017-04-17T02:23:09.768Z,4.60
2017-04-17T02:24:08.699Z,4.60
2017-04-17T02:25:07.631Z,4.60
2017-04-17T02:26:06.557Z,4.60
2017-04-17T02:27:05.452Z,4.70
2017-04-17T02:28:04.359Z,4.70
2017-04-17T02:29:03.255Z,4.70
2017-04-17T02:30:02.152Z,4.70
2017-04-17T02:31:01.107Z,4.70
2017-04-17T02:32:00.775Z,4.70
2017-04-17T02:32:59.688Z,4.60
2017-04-17T02:33:58.972Z,4.60
2017-04-17T02:34:58.595Z,4.60
2017-04-17T02:35:57.500Z,4.60
2017-04-17T02:36:56.426Z,4.60
2017-04-17T02:37:55.347Z,4.60
2017-04-17T02:38:54.277Z,4.70
2017-04-17T02:39:53.179Z,4.70
2017-04-17T02:40:52.832Z,4.60
2017-04-17T02:41:51.731Z,4.70
2017-04-17T02:42:50.653Z,4.70
2017-04-17T02:43:49.543Z,4.60
2017-04-17T02:44:48.452Z,4.60
2017-04-17T02:45:47.335Z,4.60
2017-04-17T02:46:46.247Z,4.60
2017-04-17T02:47:45.168Z,4.60
2017-04-17T02:48:44.101Z,4.60
2017-04-17T02:49:43.028Z,4.60
2017-04-17T02:50:41.952Z,4.70
2017-04-17T02:51:40.848Z,4.70
2017-04-17T02:52:39.754Z,4.70
2017-04-17T02:53:38.680Z,4.60
2017-04-17T02:54:37.645Z,4.60
2017-04-17T02:55:36.544Z,4.70
2017-04-17T02:56:35.604Z,4.70
2017-04-17T02:57:34.511Z,4.60
2017-04-17T02:58:33.424Z,4.60
2017-04-17T02:59:32.350Z,4.50
2017-04-17T03:00:31.301Z,4.60
2017-04-17T03:01:30.958Z,4.60
2017-04-17T03:02:29.887Z,4.60
2017-04-17T03:03:28.796Z,4.60
2017-04-17T03:04:27.701Z,4.60
2017-04-17T03:05:26.651Z,4.50
2017-04-17T03:06:25.661Z,4.60
2017-04-17T03:07:24.627Z,4.50
2017-04-17T03:08:23.524Z,4.50
2017-04-17T03:09:22.431Z,4.50
2017-04-17T03:10:22.055Z,4.50
2017-04-17T03:11:22.105Z,4.50
2017-04-17T03:12:21.047Z,4.50
2017-04-17T03:13:19.975Z,4.50
2017-04-17T03:14:18.909Z,4.50
2017-04-17T03:15:17.827Z,4.50
2017-04-17T03:16:16.791Z,4.50
2017-04-17T03:17:15.711Z,4.40
2017-04-17T03:18:14.651Z,4.40
2017-04-17T03:19:13.555Z,4.40
2017-04-17T03:20:12.501Z,4.30
2017-04-17T03:21:11.416Z,4.30
2017-04-17T03:22:10.329Z,4.30
2017-04-17T03:23:09.226Z,4.20
2017-04-17T03:24:08.137Z,4.20
2017-04-17T03:25:07.035Z,4.20
2017-04-17T03:26:05.935Z,4.20
2017-04-17T03:27:04.832Z,4.20
2017-04-17T03:28:03.744Z,4.20
2017-04-17T03:29:02.672Z,4.20
2017-04-17T03:30:01.611Z,4.10
2017-04-17T03:31:00.563Z,4.10
2017-04-17T03:31:59.499Z,4.10
2017-04-17T03:32:58.395Z,4.10
2017-04-17T03:33:57.304Z,4.10
2017-04-17T03:34:56.226Z,4.10
2017-04-17T03:35:55.165Z,4.10
2017-04-17T03:36:54.107Z,4.10
2017-04-17T03:37:53.004Z,4.00
2017-04-17T03:38:51.916Z,4.10
2017-04-17T03:39:50.819Z,4.00
2017-04-17T03:40:49.715Z,4.00
2017-04-17T03:41:48.671Z,4.10
2017-04-17T03:42:47.626Z,4.10
2017-04-17T03:43:46.519Z,4.10
2017-04-17T03:44:45.445Z,4.10
2017-04-17T03:45:44.331Z,4.10
2017-04-17T03:46:43.283Z,4.10
2017-04-17T03:47:42.224Z,4.10
2017-04-17T03:48:41.150Z,4.10
2017-04-17T03:49:40.059Z,4.10
2017-04-17T03:50:39.051Z,4.00
2017-04-17T03:51:37.957Z,4.00
2017-04-17T03:52:36.844Z,4.00
2017-04-17T03:53:35.793Z,4.00
2017-04-17T03:54:34.712Z,4.00
2017-04-17T03:55:33.627Z,4.00
2017-04-17T03:56:32.537Z,4.00
2017-04-17T03:57:31.431Z,4.10
2017-04-17T03:58:30.364Z,4.10
2017-04-17T03:59:29.292Z,4.10
2017-04-17T04:00:28.203Z,4.20
2017-04-17T04:01:27.124Z,4.10
2017-04-17T04:02:26.050Z,4.20
2017-04-17T04:03:25.711Z,4.10
2017-04-17T04:04:24.628Z,4.20
2017-04-17T04:05:23.548Z,4.20
2017-04-17T04:06:22.455Z,4.20
2017-04-17T04:07:21.359Z,4.20
2017-04-17T04:08:20.292Z,4.20
2017-04-17T04:09:19.213Z,4.20
2017-04-17T04:10:18.111Z,4.10
2017-04-17T04:11:17.174Z,4.20
2017-04-17T04:12:16.079Z,4.10
2017-04-17T04:13:14.979Z,4.10
2017-04-17T04:14:14.616Z,4.00
2017-04-17T04:15:13.515Z,4.10
2017-04-17T04:16:12.430Z,4.10
2017-04-17T04:17:12.076Z,4.00
2017-04-17T04:18:10.984Z,4.10
2017-04-17T04:19:09.933Z,4.10
2017-04-17T04:20:08.892Z,4.10
2017-04-17T04:21:07.771Z,4.00
2017-04-17T04:22:06.676Z,4.00
2017-04-17T04:23:05.643Z,4.10
2017-04-17T04:24:04.547Z,4.00
2017-04-17T04:25:03.496Z,4.00
2017-04-17T04:26:02.392Z,4.00
2017-04-17T04:27:01.300Z,4.00
2017-04-17T04:28:00.188Z,4.10
2017-04-17T04:28:59.111Z,4.00
2017-04-17T04:29:58.735Z,4.00
2017-04-17T04:30:57.629Z,4.10
2017-04-17T04:31:56.522Z,4.10
2017-04-17T04:32:55.399Z,4.10
2017-04-17T04:33:54.295Z,4.10
2017-04-17T04:34:53.247Z,4.10
2017-04-17T04:35:52.152Z,4.00
2017-04-17T04:36:51.048Z,4.00
2017-04-17T04:37:49.979Z,4.00
2017-04-17T04:38:48.859Z,4.10
2017-04-17T04:39:47.751Z,4.10
2017-04-17T04:40:46.707Z,4.10
2017-04-17T04:41:45.624Z,4.10
2017-04-17T04:42:44.561Z,4.00
2017-04-17T04:43:43.452Z,4.10
2017-04-17T04:44:42.359Z,4.10
2017-04-17T04:45:41.283Z,4.10
2017-04-17T04:46:40.192Z,4.10
2017-04-17T04:47:39.100Z,4.00
2017-04-17T04:48:38.098Z,4.10
2017-04-17T04:49:36.984Z,4.10
2017-04-17T04:50:35.919Z,4.00
2017-04-17T04:51:34.801Z,4.00
2017-04-17T04:52:33.739Z,4.00
2017-04-17T04:53:32.639Z,4.00
2017-04-17T04:54:32.279Z,4.00
2017-04-17T04:55:31.173Z,4.10
2017-04-17T04:56:30.103Z,4.10
2017-04-17T04:57:29.053Z,4.10
2017-04-17T04:58:27.973Z,4.10
2017-04-17T04:59:26.985Z,4.10
2017-04-17T05:00:25.859Z,4.10
2017-04-17T05:01:24.751Z,4.00
2017-04-17T05:02:23.653Z,4.10
2017-04-17T05:03:22.586Z,4.10
2017-04-17T05:04:21.487Z,4.10
2017-04-17T05:05:20.386Z,4.10
2017-04-17T05:06:19.276Z,4.10
2017-04-17T05:07:18.182Z,4.10
2017-04-17T05:08:17.803Z,4.00
2017-04-17T05:09:16.698Z,4.10
2017-04-17T05:10:15.621Z,4.10
2017-04-17T05:11:14.541Z,4.10
2017-04-17T05:12:13.453Z,4.20
2017-04-17T05:13:12.339Z,4.20
2017-04-17T05:14:11.236Z,4.20
2017-04-17T05:15:10.164Z,4.30
2017-04-17T05:16:09.096Z,4.30
2017-04-17T05:17:08.012Z,4.30
2017-04-17T05:18:07.663Z,4.30
2017-04-17T05:19:06.572Z,4.30
2017-04-17T05:20:05.479Z,4.40
2017-04-17T05:21:04.373Z,4.30
2017-04-17T05:22:03.702Z,4.30
2017-04-17T05:23:02.642Z,4.30
2017-04-17T05:24:01.568Z,4.40
2017-04-17T05:25:00.469Z,4.40
2017-04-17T05:26:00.132Z,4.40
2017-04-17T05:26:59.015Z,4.50
2017-04-17T05:27:57.943Z,4.50
2017-04-17T05:28:57.563Z,4.50
2017-04-17T05:29:56.523Z,4.50
2017-04-17T05:30:55.495Z,4.50
2017-04-17T05:31:54.425Z,4.40
2017-04-17T05:32:53.336Z,4.50
2017-04-17T05:33:53.292Z,4.40
2017-04-17T05:34:52.188Z,4.50
2017-04-17T05:35:51.076Z,4.50
2017-04-17T05:36:49.983Z,4.50
2017-04-17T05:37:48.908Z,4.60
2017-04-17T05:38:47.824Z,4.60
2017-04-17T05:39:46.745Z,4.60
2017-04-17T05:40:45.647Z,4.60
2017-04-17T05:41:44.632Z,4.60
2017-04-17T05:42:43.534Z,4.70
2017-04-17T05:43:42.422Z,4.60
2017-04-17T05:44:41.309Z,4.60
2017-04-17T05:45:40.207Z,4.70
2017-04-17T05:46:39.120Z,4.70
2017-04-17T05:47:38.756Z,4.70
2017-04-17T05:48:37.675Z,4.70
2017-04-17T05:49:36.604Z,4.70
2017-04-17T05:50:35.505Z,4.70
2017-04-17T05:51:34.420Z,4.80
2017-04-17T05:52:33.320Z,4.80
2017-04-17T05:53:32.952Z,4.80
2017-04-17T05:54:31.829Z,4.90
2017-04-17T05:55:30.731Z,5.00
2017-04-17T05:56:29.603Z,5.00
2017-04-17T05:57:28.496Z,5.00
2017-04-17T05:58:27.368Z,5.10
2017-04-17T05:59:26.262Z,5.10
2017-04-17T06:00:25.172Z,5.20
2017-04-17T06:01:24.060Z,5.30
2017-04-17T06:02:23.691Z,5.30
2017-04-17T06:03:22.664Z,5.40
2017-04-17T06:04:21.557Z,5.40
2017-04-17T06:05:20.735Z,5.40
2017-04-17T06:06:19.633Z,5.50
2017-04-17T06:07:18.540Z,5.40
2017-04-17T06:08:17.448Z,5.40
2017-04-17T06:09:17.116Z,5.40
2017-04-17T06:10:16.038Z,5.40
2017-04-17T06:11:15.679Z,5.40
2017-04-17T06:12:14.587Z,5.50
2017-04-17T06:13:13.484Z,5.50
2017-04-17T06:14:12.375Z,5.50
2017-04-17T06:15:12.039Z,5.50
2017-04-17T06:17:10.345Z,5.60
2017-04-17T06:18:09.963Z,5.60
2017-04-17T06:19:08.859Z,5.60
2017-04-17T06:20:07.783Z,5.70
2017-04-17T06:21:06.720Z,5.70
2017-04-17T06:22:05.625Z,5.70
2017-04-17T06:23:04.508Z,5.70
2017-04-17T06:24:03.428Z,5.70
2017-04-17T06:25:03.067Z,5.70
2017-04-17T06:26:01.959Z,5.80
2017-04-17T06:27:00.864Z,5.80
2017-04-17T06:27:59.815Z,5.90
2017-04-17T06:28:58.811Z,5.70
2017-04-17T06:29:57.705Z,5.80
2017-04-17T06:30:56.677Z,5.80
2017-04-17T06:31:55.585Z,5.70
2017-04-17T06:32:54.507Z,5.70
2017-04-17T06:33:53.399Z,5.80
2017-04-17T06:34:52.296Z,5.70
2017-04-17T06:35:51.194Z,5.70
2017-04-17T06:36:50.108Z,5.80
2017-04-17T06:37:49.011Z,5.90
2017-04-17T06:38:48.055Z,5.90
2017-04-17T06:39:47.711Z,5.80
2017-04-17T06:40:47.107Z,5.90
2017-04-17T06:41:46.036Z,5.90
2017-04-17T06:42:44.962Z,5.80
2017-04-17T06:43:43.855Z,5.80
2017-04-17T06:44:42.771Z,5.80
2017-04-17T06:45:41.716Z,5.80
2017-04-17T06:46:40.630Z,5.90
2017-04-17T06:47:39.535Z,5.90
2017-04-17T06:48:38.460Z,5.90
2017-04-17T06:49:37.372Z,6.00
2017-04-17T06:50:36.356Z,6.00
2017-04-17T06:51:35.257Z,6.10
2017-04-17T06:52:34.151Z,6.00
2017-04-17T06:53:33.277Z,6.10
2017-04-17T06:54:32.195Z,6.10
2017-04-17T06:55:32.051Z,6.10
2017-04-17T06:56:31.027Z,6.20
2017-04-17T06:57:29.944Z,6.20
2017-04-17T06:58:28.824Z,6.10
2017-04-17T06:59:27.729Z,6.00
2017-04-17T07:00:26.643Z,6.10
2017-04-17T07:01:25.543Z,6.10
2017-04-17T07:02:26.507Z,6.10
2017-04-17T07:03:26.148Z,6.10
2017-04-17T07:04:25.037Z,6.10
2017-04-17T07:05:24.686Z,6.10
2017-04-17T07:06:23.587Z,6.10
2017-04-17T07:07:22.508Z,6.20
2017-04-17T07:08:21.483Z,6.20
2017-04-17T07:09:20.379Z,6.10
2017-04-17T07:10:19.282Z,6.20
2017-04-17T07:11:18.219Z,6.20
2017-04-17T07:12:17.120Z,6.10
2017-04-17T07:13:15.998Z,6.10
2017-04-17T07:14:14.973Z,6.20
2017-04-17T07:15:13.943Z,6.20
2017-04-17T07:16:12.856Z,6.10
2017-04-17T07:17:11.820Z,6.10
2017-04-17T07:18:10.759Z,6.20
2017-04-17T07:19:09.668Z,6.20
2017-04-17T07:20:08.610Z,6.20
2017-04-17T07:21:07.519Z,6.20
2017-04-17T07:22:06.444Z,6.10
2017-04-17T07:23:05.364Z,6.10
2017-04-17T07:24:04.399Z,6.10
2017-04-17T07:25:03.327Z,6.10
2017-04-17T07:26:02.245Z,6.20
2017-04-17T07:27:01.146Z,6.20
2017-04-17T07:28:00.060Z,6.20
2017-04-17T07:28:59.689Z,6.20
2017-04-17T07:29:58.597Z,6.30
2017-04-17T07:30:57.530Z,6.30
2017-04-17T07:31:56.463Z,6.30
2017-04-17T07:32:55.374Z,6.40
2017-04-17T07:33:54.288Z,6.40
2017-04-17T07:34:53.215Z,6.40
2017-04-17T07:35:52.871Z,6.30
2017-04-17T07:36:51.775Z,6.40
2017-04-17T07:37:50.758Z,6.40
2017-04-17T07:38:49.699Z,6.40
2017-04-17T07:39:48.627Z,6.40
2017-04-17T07:40:47.548Z,6.50
2017-04-17T07:41:46.457Z,6.50
2017-04-17T07:42:45.534Z,6.60
2017-04-17T07:43:44.462Z,6.70
2017-04-17T07:44:43.363Z,6.60
2017-04-17T07:45:43.040Z,6.60
2017-04-17T07:46:41.952Z,6.80
2017-04-17T07:47:40.880Z,6.90
2017-04-17T07:48:39.795Z,6.90
2017-04-17T07:49:38.720Z,7.00
2017-04-17T07:50:37.629Z,7.10
2017-04-17T07:51:36.552Z,7.20
2017-04-17T07:52:36.191Z,7.10
2017-04-17T07:53:35.105Z,7.00
2017-04-17T07:54:34.003Z,7.10
2017-04-17T07:55:33.651Z,6.90
2017-04-17T07:56:32.582Z,6.90
2017-04-17T07:57:32.375Z,6.80
2017-04-17T07:58:31.287Z,6.90
2017-04-17T07:59:30.179Z,6.80
2017-04-17T08:00:29.075Z,6.70
2017-04-17T08:01:27.999Z,6.80
2017-04-17T08:02:26.947Z,6.70
2017-04-17T08:03:25.881Z,6.70
2017-04-17T08:04:25.021Z,6.70
2017-04-17T08:05:23.946Z,6.70
2017-04-17T08:06:23.585Z,6.60
2017-04-17T08:07:22.555Z,6.70
2017-04-17T08:08:21.460Z,6.70
2017-04-17T08:09:20.424Z,6.80
2017-04-17T08:10:19.374Z,6.80
2017-04-17T08:11:18.298Z,6.90
2017-04-17T08:12:17.215Z,6.90
2017-04-17T08:13:16.153Z,6.90
2017-04-17T08:14:15.052Z,6.80
2017-04-17T08:15:13.969Z,6.80
2017-04-17T08:16:13.605Z,6.80
2017-04-17T08:17:12.509Z,6.80
2017-04-17T08:18:11.487Z,6.80
2017-04-17T08:19:10.424Z,7.00
2017-04-17T08:20:09.332Z,6.90
2017-04-17T08:21:08.238Z,7.00
2017-04-17T08:22:07.151Z,7.10
2017-04-17T08:23:06.051Z,7.20
2017-04-17T08:24:04.987Z,7.20
2017-04-17T08:25:03.911Z,7.20
2017-04-17T08:26:02.940Z,7.10
2017-04-17T08:27:01.917Z,7.20
2017-04-17T08:28:00.877Z,7.20
2017-04-17T08:28:59.827Z,7.20
2017-04-17T08:29:59.496Z,7.30
2017-04-17T08:30:58.401Z,7.60
2017-04-17T08:31:58.032Z,7.70
2017-04-17T08:32:57.002Z,7.90
2017-04-17T08:33:55.877Z,8.10
2017-04-17T08:34:54.814Z,8.10
2017-04-17T08:35:53.712Z,8.10
2017-04-17T08:37:52.027Z,8.10
2017-04-17T08:38:50.944Z,8.00
2017-04-17T08:39:49.848Z,8.00
2017-04-17T08:40:48.744Z,8.10
2017-04-17T08:41:47.653Z,8.20
2017-04-17T08:42:46.607Z,8.40
2017-04-17T08:43:46.247Z,8.20
2017-04-17T08:44:45.179Z,8.50
2017-04-17T08:45:44.814Z,8.60
2017-04-17T08:46:43.739Z,8.80
2017-04-17T08:47:42.692Z,8.80
2017-04-17T08:48:41.607Z,8.50
2017-04-17T08:49:40.475Z,8.40
2017-04-17T08:50:39.552Z,8.40
2017-04-17T08:51:38.481Z,8.40
2017-04-17T08:52:37.364Z,8.40
2017-04-17T08:53:36.319Z,8.40
2017-04-17T08:54:35.251Z,8.40
2017-04-17T08:55:34.169Z,8.40
2017-04-17T08:56:33.052Z,8.50
2017-04-17T08:58:31.491Z,8.30
2017-04-17T08:59:30.453Z,8.40
2017-04-17T09:00:29.371Z,8.40
2017-04-17T09:01:28.299Z,8.40
2017-04-17T09:02:27.943Z,8.10
2017-04-17T09:03:26.851Z,8.30
2017-04-17T09:04:25.756Z,8.40
2017-04-17T09:05:25.518Z,8.30
2017-04-17T09:06:24.467Z,8.40
2017-04-17T09:07:23.382Z,8.30
2017-04-17T09:08:22.320Z,8.30
2017-04-17T09:09:21.219Z,8.40
2017-04-17T09:10:20.172Z,8.50
2017-04-17T09:11:19.207Z,8.60
2017-04-17T09:12:18.143Z,8.70
2017-04-17T09:13:17.040Z,8.60
2017-04-17T09:14:15.944Z,8.70
2017-04-17T09:15:14.889Z,8.80
2017-04-17T09:16:13.915Z,8.70
2017-04-17T09:17:12.834Z,8.90
2017-04-17T09:18:11.812Z,8.90
2017-04-17T09:19:10.727Z,9.00
2017-04-17T09:20:09.701Z,8.90
2017-04-17T09:21:08.596Z,8.80
2017-04-17T09:22:07.507Z,8.70
2017-04-17T09:23:06.403Z,8.70
2017-04-17T09:24:06.099Z,8.70
2017-04-17T09:25:04.995Z,8.70
2017-04-17T09:26:03.886Z,8.80
2017-04-17T09:27:03.535Z,8.80
2017-04-17T09:28:02.411Z,8.80
2017-04-17T09:29:01.292Z,8.90
2017-04-17T09:30:00.230Z,9.00
2017-04-17T09:30:59.111Z,8.90
2017-04-17T09:31:58.007Z,8.80
2017-04-17T09:32:56.923Z,8.80
2017-04-17T09:33:55.825Z,8.90
2017-04-17T09:34:54.743Z,8.90
2017-04-17T09:35:53.880Z,9.00
2017-04-17T09:36:52.852Z,9.10
2017-04-17T09:37:51.914Z,9.10
2017-04-17T09:38:50.840Z,9.20
2017-04-17T09:39:49.749Z,9.30
2017-04-17T09:40:48.644Z,9.30
2017-04-17T09:41:47.547Z,9.40
2017-04-17T09:42:46.480Z,9.40
2017-04-17T09:43:46.124Z,9.40
2017-04-17T09:44:45.011Z,9.50
2017-04-17T09:45:43.903Z,9.60
2017-04-17T09:46:42.816Z,9.60
2017-04-17T09:47:42.510Z,9.60
2017-04-17T09:48:41.425Z,9.70
2017-04-17T09:49:40.331Z,9.50
2017-04-17T09:50:39.239Z,9.20
2017-04-17T09:51:38.118Z,9.10
2017-04-17T09:52:37.133Z,9.00
2017-04-17T09:53:37.932Z,8.90
2017-04-17T09:54:38.567Z,8.90
2017-04-17T09:55:38.943Z,8.80
2017-04-17T09:56:38.975Z,8.80
2017-04-17T09:57:39.011Z,8.80
2017-04-17T09:58:39.159Z,8.80
2017-04-17T09:59:39.828Z,8.80
2017-04-17T10:00:39.594Z,8.80
2017-04-17T10:01:39.909Z,8.80
2017-04-17T10:02:39.944Z,8.80
2017-04-17T10:03:40.287Z,8.80
2017-04-17T10:04:40.815Z,8.80
2017-04-17T10:05:40.744Z,8.90
2017-04-17T10:06:41.191Z,8.70
2017-04-17T10:07:42.236Z,8.60
2017-04-17T10:08:42.630Z,8.70
2017-04-17T10:09:42.520Z,8.60
2017-04-17T10:10:43.315Z,8.70
2017-04-17T10:11:43.387Z,8.70
2017-04-17T10:12:43.528Z,8.70
2017-04-17T10:13:43.698Z,8.60
2017-04-17T10:14:43.840Z,8.50
2017-04-17T10:15:44.266Z,8.50
2017-04-17T10:16:44.147Z,8.40
2017-04-17T10:17:44.883Z,8.50
2017-04-17T10:18:45.409Z,8.40
2017-04-17T10:19:45.647Z,8.40
2017-04-17T10:20:46.173Z,8.40
2017-04-17T10:21:45.976Z,8.40
2017-04-17T10:22:47.378Z,8.30
2017-04-17T10:24:47.613Z,8.40
2017-04-17T10:25:48.117Z,8.40
2017-04-17T10:26:48.567Z,8.40
2017-04-17T10:27:48.813Z,8.20
2017-04-17T10:28:49.791Z,8.10
2017-04-17T10:29:51.148Z,8.10
2017-04-17T10:30:51.474Z,8.30
2017-04-17T10:31:51.981Z,8.40
2017-04-17T10:32:53.154Z,8.50
2017-04-17T10:33:53.704Z,8.50
2017-04-17T10:34:53.235Z,8.60
2017-04-17T10:35:53.132Z,8.70
2017-04-17T10:36:53.033Z,8.80
2017-04-17T10:37:52.738Z,8.90
2017-04-17T10:38:52.976Z,9.00
2017-04-17T10:39:52.779Z,8.90
2017-04-17T10:40:53.067Z,9.10
2017-04-17T10:41:53.246Z,9.10
2017-04-17T10:42:53.941Z,9.10
2017-04-17T10:43:54.578Z,9.00
2017-04-17T10:44:55.386Z,9.00
2017-04-17T10:45:55.388Z,9.00
2017-04-17T10:46:55.251Z,8.90
2017-04-17T10:47:55.625Z,8.90
2017-04-17T10:48:56.410Z,9.00
2017-04-17T10:49:56.578Z,8.90
2017-04-17T10:50:57.669Z,8.80
2017-04-17T10:51:57.944Z,8.90
2017-04-17T10:52:57.718Z,8.90
2017-04-17T10:53:57.979Z,9.00
2017-04-17T10:54:58.652Z,9.00
2017-04-17T10:55:58.761Z,9.10
2017-04-17T10:56:59.058Z,9.20
2017-04-17T10:57:58.702Z,9.30
2017-04-17T10:58:58.992Z,9.40
2017-04-17T10:59:59.536Z,9.50
2017-04-17T11:00:59.704Z,9.60
2017-04-17T11:02:00.056Z,9.70
2017-04-17T11:02:59.749Z,9.60
2017-04-17T11:03:58.700Z,9.50
2017-04-17T11:04:57.626Z,9.60
2017-04-17T11:05:56.563Z,9.60
2017-04-17T11:06:55.482Z,9.60
2017-04-17T11:07:54.387Z,9.70
2017-04-17T11:08:53.279Z,9.60
2017-04-17T11:09:52.931Z,9.50
2017-04-17T11:10:51.828Z,9.40
2017-04-17T11:11:50.768Z,9.20
2017-04-17T11:12:49.663Z,9.10
2017-04-17T11:13:48.556Z,9.10
2017-04-17T11:14:47.528Z,9.10
2017-04-17T11:15:46.471Z,9.00
2017-04-17T11:16:46.156Z,8.80
2017-04-17T11:17:45.142Z,9.00
2017-04-17T11:18:44.196Z,9.10
2017-04-17T11:19:43.112Z,9.00
2017-04-17T11:20:42.744Z,8.50
2017-04-17T11:21:41.686Z,8.60
2017-04-17T11:22:40.623Z,8.70
2017-04-17T11:23:39.539Z,8.70
2017-04-17T11:24:38.438Z,8.60
2017-04-17T11:25:37.423Z,8.50
2017-04-17T11:26:37.062Z,8.50
2017-04-17T11:27:36.027Z,8.40
2017-04-17T11:28:35.098Z,8.40
2017-04-17T11:29:33.995Z,8.40
2017-04-17T11:30:32.900Z,8.50
2017-04-17T11:31:31.820Z,8.60
2017-04-17T11:32:30.772Z,8.80
2017-04-17T11:33:29.647Z,8.80
2017-04-17T11:34:28.551Z,8.70
2017-04-17T11:35:27.475Z,8.60
2017-04-17T11:36:26.391Z,8.50
2017-04-17T11:37:25.320Z,8.50
2017-04-17T11:38:24.256Z,8.60
2017-04-17T11:39:23.236Z,8.60
2017-04-17T11:40:22.135Z,8.60
2017-04-17T11:41:21.200Z,8.70
2017-04-17T11:42:20.127Z,8.80
2017-04-17T11:44:58.912Z,9.20
2017-04-17T11:45:57.842Z,9.30
2017-04-17T11:46:56.752Z,9.20
2017-04-17T11:47:55.657Z,9.30
2017-04-17T11:48:54.608Z,9.20
2017-04-17T11:49:53.508Z,9.20
2017-04-17T11:50:52.430Z,9.40
2017-04-17T11:51:51.335Z,9.30
2017-04-17T11:52:50.279Z,9.20
2017-04-17T11:53:49.197Z,9.20
2017-04-17T11:54:48.109Z,9.30
2017-04-17T11:55:47.016Z,9.30
2017-04-17T11:56:46.694Z,9.30
2017-04-17T11:57:45.600Z,9.50
2017-04-17T11:58:44.672Z,9.50
2017-04-17T11:59:43.571Z,9.60
2017-04-17T12:00:42.487Z,9.70
2017-04-17T12:01:41.435Z,9.60
2017-04-17T12:02:41.097Z,9.60
2017-04-17T12:03:39.996Z,9.70
2017-04-17T12:04:38.944Z,9.70
2017-04-17T12:05:37.852Z,9.80
2017-04-17T12:06:36.901Z,9.90
2017-04-17T12:07:35.885Z,9.90
2017-04-17T12:08:34.828Z,9.90
2017-04-17T12:09:33.739Z,10.00
2017-04-17T12:10:32.695Z,9.90
2017-04-17T12:11:32.331Z,9.90
2017-04-17T12:12:31.435Z,9.80
2017-04-17T12:13:30.410Z,9.80
2017-04-17T12:14:29.338Z,9.80
2017-04-17T12:15:28.248Z,9.80
2017-04-17T12:16:27.200Z,9.80
2017-04-17T12:17:26.877Z,9.40
2017-04-17T12:18:25.814Z,9.50
2017-04-17T12:19:24.783Z,9.40
2017-04-17T12:20:23.765Z,9.30
2017-04-17T12:21:22.707Z,9.40
2017-04-17T12:22:21.666Z,9.20
2017-04-17T12:23:20.678Z,9.20
2017-04-17T12:24:19.657Z,9.20
2017-04-17T12:25:18.625Z,9.30
2017-04-17T12:26:17.552Z,9.40
2017-04-17T12:27:16.542Z,9.50
2017-04-17T12:28:15.462Z,9.70
2017-04-17T12:29:14.466Z,9.70
2017-04-17T12:30:14.112Z,9.80
2017-04-17T12:31:13.246Z,9.50
2017-04-17T12:32:12.148Z,9.30
2017-04-17T12:33:11.800Z,9.10
2017-04-17T12:34:10.732Z,8.70
2017-04-17T12:35:09.639Z,8.60
2017-04-17T12:36:08.657Z,8.40
2017-04-17T12:37:07.742Z,8.40
2017-04-17T12:38:06.639Z,8.30
2017-04-17T12:39:06.496Z,8.40
2017-04-17T12:40:05.437Z,8.50
2017-04-17T12:41:04.353Z,8.50
2017-04-17T12:42:03.323Z,8.50
2017-04-17T12:43:02.232Z,8.70
2017-04-17T12:44:01.156Z,8.70
2017-04-17T12:45:00.078Z,8.80
2017-04-17T12:45:59.088Z,8.70
2017-04-17T12:46:58.012Z,8.60
2017-04-17T12:47:57.662Z,8.30
2017-04-17T12:48:56.593Z,8.30
2017-04-17T12:49:56.552Z,8.40
2017-04-17T12:50:55.483Z,8.50
2017-04-17T12:51:54.443Z,8.60
2017-04-17T12:52:53.341Z,8.50
2017-04-17T12:53:53.030Z,8.60
2017-04-17T12:54:51.992Z,8.50
2017-04-17T12:55:50.901Z,8.50
2017-04-17T12:56:50.553Z,8.50
2017-04-17T12:57:49.493Z,8.60
2017-04-17T12:58:48.472Z,8.60
2017-04-17T12:59:47.413Z,8.60
2017-04-17T13:00:46.307Z,8.60
2017-04-17T13:01:45.202Z,8.50
2017-04-17T13:02:44.884Z,8.50
2017-04-17T13:03:43.812Z,8.60
2017-04-17T13:04:42.740Z,8.80
2017-04-17T13:05:41.633Z,8.60
2017-04-17T13:06:40.547Z,8.80
2017-04-17T13:07:39.468Z,8.90
2017-04-17T13:08:38.355Z,9.00
2017-04-17T13:09:37.343Z,8.90
2017-04-17T13:10:36.263Z,9.00
2017-04-17T13:11:35.176Z,9.10
2017-04-17T13:12:34.080Z,9.20